Time;durP1;ratioP1;P1;durP2;ratioP2;P2;SDS_P1;SDS_P2;PMS_P1;PMS_P2;Temp;Humidity;BMP_temperature;BMP_pressure;BME280_temperature;BME280_humidity;BME280_pressure;Samples;Min_cycle;Max_cycle;Signal;HPM_P1;HPM_P2
2021/08/08 00:00:46;;;;;;;4.82;2.40;;;;;;;14.43;95.17;99215.00;5045055;28;20041;-57
2021/08/08 00:03:14;;;;;;;5.78;2.83;;;;;;;14.39;95.39;99219.97;5037122;28;20115;-58
2021/08/08 00:05:40;;;;;;;6.22;3.58;;;;;;;14.34;95.78;99220.56;5046682;28;20057;-62
2021/08/08 00:08:07;;;;;;;6.35;3.25;;;;;;;14.34;95.45;99220.56;5042798;28;20072;-64
2021/08/08 00:10:33;;;;;;;6.63;3.10;;;;;;;14.34;95.97;99228.66;5044885;28;20527;-61
2021/08/08 00:12:59;;;;;;;4.80;3.05;;;;;;;14.43;95.74;99231.22;5034904;28;20056;-61
2021/08/08 00:15:26;;;;;;;7.45;3.80;;;;;;;14.44;95.65;99224.78;5048884;28;20053;-59
2021/08/08 00:17:52;;;;;;;4.57;2.80;;;;;;;14.53;95.04;99229.06;5046602;28;20049;-58
2021/08/08 00:20:20;;;;;;;5.45;3.03;;;;;;;14.57;95.00;99228.50;5047745;28;20095;-55
2021/08/08 00:22:46;;;;;;;7.05;3.40;;;;;;;14.51;94.90;99236.53;5024936;28;20493;-61
2021/08/08 00:25:13;;;;;;;4.32;3.22;;;;;;;14.67;94.36;99238.94;5044247;28;20419;-56
2021/08/08 00:27:39;;;;;;;4.65;3.25;;;;;;;14.43;94.55;99234.75;5040692;28;20341;-57
2021/08/08 00:30:08;;;;;;;6.40;3.42;;;;;;;14.43;95.12;99236.63;5039063;28;20057;-62
2021/08/08 00:32:34;;;;;;;7.32;3.63;;;;;;;14.33;95.40;99234.25;5039424;28;20420;-63
2021/08/08 00:35:01;;;;;;;5.90;3.65;;;;;;;14.28;95.58;99232.13;5046564;28;20102;-63
2021/08/08 00:37:28;;;;;;;8.68;4.47;;;;;;;14.25;95.76;99224.41;5039861;28;20041;-64
2021/08/08 00:39:55;;;;;;;4.45;3.30;;;;;;;14.23;96.01;99228.34;5039344;28;20457;-61
2021/08/08 00:42:21;;;;;;;4.45;3.00;;;;;;;14.31;95.89;99228.19;5042664;28;20057;-62
2021/08/08 00:44:47;;;;;;;4.53;2.95;;;;;;;14.24;96.20;99228.16;5047314;28;20045;-61
2021/08/08 00:47:14;;;;;;;8.23;3.83;;;;;;;14.30;96.23;99229.22;5047794;28;20045;-62
2021/08/08 00:49:40;;;;;;;10.20;3.72;;;;;;;14.29;96.19;99224.84;5048320;28;20457;-64
2021/08/08 00:52:08;;;;;;;7.95;3.38;;;;;;;14.34;95.97;99223.28;5046806;28;20052;-65
2021/08/08 00:54:35;;;;;;;5.40;3.30;;;;;;;14.44;95.48;99219.38;5043172;28;20092;-62
2021/08/08 00:57:02;;;;;;;5.80;3.50;;;;;;;14.45;95.31;99223.81;5027299;28;20045;-63
2021/08/08 00:59:28;;;;;;;5.28;3.08;;;;;;;14.46;95.60;99218.22;5040011;28;20057;-63
2021/08/08 01:01:56;;;;;;;4.82;3.22;;;;;;;14.44;95.68;99211.28;5050499;28;20133;-63
2021/08/08 01:04:27;;;;;;;4.80;3.50;;;;;;;14.39;95.73;99203.78;5048363;28;20076;-61
2021/08/08 01:06:59;;;;;;;5.15;2.90;;;;;;;14.49;95.10;99208.88;5050513;28;20098;-64
2021/08/08 01:09:27;;;;;;;9.15;3.08;;;;;;;14.49;94.98;99208.88;5052076;28;20048;-60
2021/08/08 01:11:56;;;;;;;4.47;3.20;;;;;;;14.57;94.42;99214.16;5046870;28;20499;-58
2021/08/08 01:14:24;;;;;;;6.35;3.58;;;;;;;14.59;94.32;99237.22;5028715;28;20494;-58
2021/08/08 01:16:52;;;;;;;7.32;3.70;;;;;;;14.53;94.61;99229.06;5050956;28;20565;-59
2021/08/08 01:19:21;;;;;;;11.57;3.28;;;;;;;14.56;94.71;99223.25;5051601;28;20075;-59
2021/08/08 01:21:50;;;;;;;4.35;3.13;;;;;;;14.50;94.93;99224.06;5050202;28;20045;-58
2021/08/08 01:24:18;;;;;;;10.40;3.30;;;;;;;14.49;94.63;99220.53;5050130;28;20482;-58
2021/08/08 01:26:46;;;;;;;6.07;4.07;;;;;;;14.53;94.41;99218.25;5044962;28;20049;-58
2021/08/08 01:29:12;;;;;;;5.55;3.22;;;;;;;14.53;94.13;99213.69;5041877;28;20052;-61
2021/08/08 01:31:38;;;;;;;5.43;2.67;;;;;;;14.53;94.22;99216.41;5040958;28;20118;-58
2021/08/08 01:34:05;;;;;;;6.50;2.80;;;;;;;14.61;93.70;99218.13;5030443;28;20075;-59
2021/08/08 01:36:31;;;;;;;4.72;2.55;;;;;;;14.71;93.26;99210.53;5036511;28;20041;-57
2021/08/08 01:39:02;;;;;;;4.68;3.40;;;;;;;14.55;93.74;99210.78;5048209;28;20045;-57
2021/08/08 01:41:35;;;;;;;6.50;2.65;;;;;;;14.53;93.62;99226.34;5050670;28;20044;-63
2021/08/08 01:44:04;;;;;;;4.32;2.55;;;;;;;14.68;92.86;99223.56;5046949;28;20057;-56
2021/08/08 01:46:33;;;;;;;5.30;2.53;;;;;;;14.79;92.07;99223.03;5051867;28;20578;-58
2021/08/08 01:49:02;;;;;;;5.47;2.53;;;;;;;14.72;92.64;99232.97;5050975;28;20454;-60
2021/08/08 01:51:30;;;;;;;5.00;2.55;;;;;;;14.71;92.82;99231.31;5040002;28;20045;-59
2021/08/08 01:53:57;;;;;;;6.13;2.53;;;;;;;14.80;92.39;99225.56;5052147;22;20094;-56
2021/08/08 01:56:23;;;;;;;5.88;2.78;;;;;;;14.76;92.24;99226.13;5057036;28;20063;-61
2021/08/08 01:58:51;;;;;;;4.75;2.95;;;;;;;14.70;92.93;99246.69;5069892;28;20391;-63
2021/08/08 02:01:18;;;;;;;4.15;2.60;;;;;;;14.96;91.22;99226.31;5070135;28;20140;-61
2021/08/08 02:04:14;;;;;;;6.05;2.65;;;;;;;14.86;91.85;99232.88;5053326;28;20068;-65
2021/08/08 02:06:40;;;;;;;4.63;2.60;;;;;;;14.82;91.92;99244.28;5049636;28;20421;-64
2021/08/08 02:09:06;;;;;;;3.95;2.55;;;;;;;15.01;90.54;99242.75;5060923;28;20049;-64
2021/08/08 02:11:33;;;;;;;5.15;2.78;;;;;;;14.97;90.93;99238.78;5061108;28;20731;-59
2021/08/08 02:14:00;;;;;;;4.45;1.95;;;;;;;14.93;91.28;99240.22;5059331;28;20067;-58
2021/08/08 02:16:27;;;;;;;5.22;2.75;;;;;;;14.96;91.00;99240.63;5067477;28;20102;-56
2021/08/08 02:18:53;;;;;;;3.40;2.28;;;;;;;15.00;90.26;99235.66;5063055;28;20461;-61
2021/08/08 02:21:19;;;;;;;6.97;2.50;;;;;;;14.88;90.43;99249.72;5068147;28;20048;-61
2021/08/08 02:23:46;;;;;;;8.20;2.45;;;;;;;15.02;89.67;99249.81;5058437;28;20052;-57
2021/08/08 02:26:12;;;;;;;8.82;2.55;;;;;;;14.91;90.45;99253.88;5046302;28;20471;-64
2021/08/08 02:28:38;;;;;;;4.68;2.13;;;;;;;14.77;91.06;99255.66;5051823;28;20045;-63
2021/08/08 02:31:06;;;;;;;4.97;2.28;;;;;;;14.64;92.02;99263.63;5065440;28;20076;-65
2021/08/08 02:33:32;;;;;;;3.35;2.40;;;;;;;14.67;91.21;99265.13;5066339;28;20090;-64
2021/08/08 02:35:58;;;;;;;4.22;2.53;;;;;;;14.65;91.28;99268.00;5068020;28;20056;-63
2021/08/08 02:38:25;;;;;;;5.03;2.63;;;;;;;14.69;91.03;99272.00;5060491;28;20049;-65
2021/08/08 02:40:51;;;;;;;4.30;2.50;;;;;;;14.78;90.44;99261.88;5071028;28;20051;-66
2021/08/08 02:43:17;;;;;;;6.47;2.75;;;;;;;14.90;89.48;99266.56;5064873;28;20049;-63
2021/08/08 02:45:45;;;;;;;4.32;2.60;;;;;;;14.81;90.37;99266.94;5070078;28;20410;-61
2021/08/08 02:48:13;;;;;;;2.85;2.08;;;;;;;14.84;89.66;99275.47;5069007;28;20052;-63
2021/08/08 02:50:39;;;;;;;3.80;2.28;;;;;;;14.98;88.58;99270.16;5068341;28;20125;-62
2021/08/08 02:53:05;;;;;;;4.30;2.40;;;;;;;14.85;89.47;99282.53;5064515;28;20053;-53
2021/08/08 02:55:33;;;;;;;5.93;2.20;;;;;;;14.70;89.84;99279.09;5062170;28;20463;-59
2021/08/08 02:57:59;;;;;;;3.35;2.33;;;;;;;14.53;90.66;99283.91;5064772;28;20103;-59
2021/08/08 03:00:25;;;;;;;3.90;2.38;;;;;;;14.44;91.08;99287.75;5069809;28;20079;-59
2021/08/08 03:02:52;;;;;;;4.75;2.53;;;;;;;14.32;91.66;99282.00;5064664;28;20071;-58
2021/08/08 03:05:19;;;;;;;4.82;2.15;;;;;;;14.25;92.20;99291.88;5050433;28;20073;-61
2021/08/08 03:07:46;;;;;;;5.93;2.17;;;;;;;14.34;91.39;99289.91;5064635;28;20133;-59
2021/08/08 03:10:13;;;;;;;5.38;2.33;;;;;;;14.24;92.27;99294.78;5068644;28;20509;-58
2021/08/08 03:12:39;;;;;;;4.82;2.75;;;;;;;14.22;92.23;99289.56;5065680;28;20551;-60
2021/08/08 03:15:06;;;;;;;5.20;2.53;;;;;;;14.21;91.93;99305.97;5061556;28;20113;-62
2021/08/08 03:17:33;;;;;;;4.95;2.33;;;;;;;14.21;91.99;99303.25;5064999;28;20052;-56
2021/08/08 03:19:59;;;;;;;5.20;2.78;;;;;;;14.18;91.97;99306.31;5066581;28;20137;-58
2021/08/08 03:22:27;;;;;;;6.13;2.75;;;;;;;14.08;92.20;99311.19;5059858;28;20064;-61
2021/08/08 03:24:53;;;;;;;3.72;2.47;;;;;;;14.11;91.90;99303.56;5068377;28;20482;-57
2021/08/08 03:27:19;;;;;;;3.22;2.08;;;;;;;14.17;91.28;99307.34;5060318;28;20102;-59
2021/08/08 03:29:46;;;;;;;5.90;2.58;;;;;;;14.05;91.87;99323.19;5060604;28;20075;-62
2021/08/08 03:32:12;;;;;;;3.00;1.80;;;;;;;14.11;90.96;99314.34;5062530;28;20174;-57
2021/08/08 03:34:38;;;;;;;6.65;2.40;;;;;;;14.08;91.01;99312.00;5066931;28;20414;-56
2021/08/08 03:37:05;;;;;;;5.97;2.47;;;;;;;14.05;91.06;99321.31;5046695;28;20576;-57
2021/08/08 03:39:33;;;;;;;4.40;1.95;;;;;;;13.93;91.50;99314.75;5066826;28;20044;-53
2021/08/08 03:41:59;;;;;;;5.65;2.10;;;;;;;14.20;89.65;99313.19;5065401;28;20098;-52
2021/08/08 03:44:25;;;;;;;5.90;1.80;;;;;;;14.17;89.47;99324.38;5063515;28;20113;-57
2021/08/08 03:46:52;;;;;;;4.85;2.17;;;;;;;14.03;90.26;99325.25;5068602;28;20048;-57
2021/08/08 03:49:18;;;;;;;2.65;1.70;;;;;;;14.15;90.05;99326.44;5065455;28;20102;-62
2021/08/08 03:51:45;;;;;;;3.10;1.50;;;;;;;14.24;88.62;99330.69;5062816;28;20063;-62
2021/08/08 03:54:11;;;;;;;3.97;1.92;;;;;;;14.06;89.61;99335.66;5065624;28;20052;-61
2021/08/08 03:56:38;;;;;;;6.32;2.25;;;;;;;14.07;89.96;99341.88;5056053;28;20474;-62
2021/08/08 03:59:05;;;;;;;4.03;1.40;;;;;;;14.17;88.09;99337.88;5054660;28;20056;-60
2021/08/08 04:01:31;;;;;;;2.92;1.70;;;;;;;14.07;89.12;99347.28;5060766;28;20075;-62
2021/08/08 04:03:57;;;;;;;7.20;1.92;;;;;;;13.94;89.87;99356.88;5068329;28;20044;-61
2021/08/08 04:06:24;;;;;;;3.63;1.70;;;;;;;13.93;89.88;99357.06;5052168;28;20507;-62
2021/08/08 04:08:50;;;;;;;3.80;1.50;;;;;;;13.96;89.43;99348.59;5056027;28;20097;-61
2021/08/08 04:11:16;;;;;;;3.42;1.70;;;;;;;13.96;89.40;99351.28;5063854;28;20045;-60
2021/08/08 04:13:44;;;;;;;3.65;1.40;;;;;;;13.88;90.29;99346.00;5061111;28;20095;-62
2021/08/08 04:16:10;;;;;;;2.83;1.95;;;;;;;14.07;89.30;99344.59;5064579;28;20056;-59
2021/08/08 04:18:37;;;;;;;5.75;1.52;;;;;;;14.10;88.70;99358.56;5051519;28;20053;-57
2021/08/08 04:21:03;;;;;;;3.40;1.50;;;;;;;14.07;89.04;99358.06;5066229;28;20102;-59
2021/08/08 04:23:29;;;;;;;2.97;1.42;;;;;;;14.20;88.30;99366.34;5048453;28;20465;-56
2021/08/08 04:25:56;;;;;;;2.50;1.38;;;;;;;14.30;87.47;99366.88;5057674;28;20122;-60
2021/08/08 04:28:22;;;;;;;4.57;1.63;;;;;;;14.42;86.94;99378.03;5060608;28;20110;-57
2021/08/08 04:30:50;;;;;;;2.42;1.50;;;;;;;14.42;86.99;99372.63;5063292;28;20109;-64
2021/08/08 04:33:16;;;;;;;5.88;1.70;;;;;;;14.38;87.25;99376.72;5073004;28;20094;-63
2021/08/08 04:35:42;;;;;;;3.70;1.80;;;;;;;14.34;87.10;99378.97;5063601;28;20044;-61
2021/08/08 04:38:09;;;;;;;3.42;1.70;;;;;;;14.29;87.40;99376.84;5061776;28;20057;-64
2021/08/08 04:40:35;;;;;;;4.15;1.60;;;;;;;14.33;87.06;99380.00;5072478;28;20082;-62
2021/08/08 04:43:04;;;;;;;2.42;1.38;;;;;;;14.41;86.90;99379.88;5063988;28;20040;-65
2021/08/08 04:45:30;;;;;;;2.65;1.40;;;;;;;14.58;86.11;99380.53;5066901;28;20452;-62
2021/08/08 04:47:58;;;;;;;2.28;1.23;;;;;;;14.56;86.21;99386.13;5072387;28;20571;-57
2021/08/08 04:50:24;;;;;;;2.95;1.50;;;;;;;14.55;86.86;99397.09;5063913;28;20049;-56
2021/08/08 04:52:51;;;;;;;4.32;1.80;;;;;;;14.55;87.37;99391.69;5071150;28;20044;-54
2021/08/08 04:55:17;;;;;;;2.20;1.30;;;;;;;14.59;87.03;99401.13;5069132;28;20103;-59
2021/08/08 04:57:44;;;;;;;3.95;1.75;;;;;;;14.66;86.07;99402.00;5065570;28;20072;-57
2021/08/08 05:00:12;;;;;;;1.45;1.05;;;;;;;14.83;84.50;99408.84;5059766;28;20502;-62
2021/08/08 05:02:43;;;;;;;3.22;1.55;;;;;;;14.86;83.96;99413.03;5072451;28;20048;-62
2021/08/08 05:05:12;;;;;;;3.40;1.23;;;;;;;14.87;84.77;99412.84;5060591;28;20082;-62
2021/08/08 05:07:39;;;;;;;3.42;1.40;;;;;;;14.96;84.74;99413.56;5069569;28;20102;-62
2021/08/08 05:10:07;;;;;;;1.48;1.05;;;;;;;14.98;85.17;99421.47;5072490;28;20052;-62
2021/08/08 05:12:33;;;;;;;1.77;1.20;;;;;;;15.17;84.01;99431.66;5069314;28;20085;-63
2021/08/08 05:15:00;;;;;;;6.32;1.25;;;;;;;15.21;83.12;99428.34;5068764;28;20076;-58
2021/08/08 05:17:26;;;;;;;2.05;1.20;;;;;;;15.33;83.28;99428.66;5067749;28;20070;-58
2021/08/08 05:19:52;;;;;;;2.55;0.80;;;;;;;15.40;82.17;99432.28;5070243;28;20057;-60
2021/08/08 05:22:20;;;;;;;4.70;1.23;;;;;;;15.47;81.71;99429.63;5068522;28;20049;-58
2021/08/08 05:24:46;;;;;;;6.68;1.52;;;;;;;15.75;80.13;99440.50;5065566;28;20041;-58
2021/08/08 05:27:13;;;;;;;2.45;1.00;;;;;;;15.67;80.69;99437.94;5060691;28;20072;-59
2021/08/08 05:29:39;;;;;;;2.95;1.40;;;;;;;15.83;80.90;99443.03;5070553;28;20106;-62
2021/08/08 05:32:06;;;;;;;1.25;1.05;;;;;;;15.81;80.68;99445.09;5055575;28;20045;-61
2021/08/08 05:34:32;;;;;;;2.20;1.10;;;;;;;15.80;80.83;99456.97;5067080;28;20048;-62
2021/08/08 05:36:59;;;;;;;3.40;1.23;;;;;;;15.98;79.50;99457.31;5065853;28;20133;-63
2021/08/08 05:39:26;;;;;;;2.97;1.10;;;;;;;16.08;78.75;99460.47;5064998;28;20099;-62
2021/08/08 05:41:53;;;;;;;2.90;1.30;;;;;;;16.13;79.97;99464.47;5066588;28;20040;-63
2021/08/08 05:44:19;;;;;;;1.55;0.88;;;;;;;16.25;79.41;99473.72;5060370;28;20051;-62
2021/08/08 05:46:45;;;;;;;5.68;1.10;;;;;;;16.34;77.76;99472.53;5066865;28;20467;-62
2021/08/08 05:49:12;;;;;;;3.35;1.55;;;;;;;16.38;79.21;99479.19;5071516;28;20129;-62
2021/08/08 05:51:40;;;;;;;2.28;1.15;;;;;;;16.30;79.58;99473.94;5071476;28;20052;-60
2021/08/08 05:54:07;;;;;;;2.25;1.38;;;;;;;16.40;78.69;99479.84;5070069;28;20137;-61
2021/08/08 05:56:35;;;;;;;2.53;0.95;;;;;;;16.46;78.73;99478.22;5069930;28;20045;-63
2021/08/08 05:59:01;;;;;;;2.30;1.05;;;;;;;16.63;78.29;99483.06;5063674;28;20106;-64
2021/08/08 06:01:27;;;;;;;4.95;1.20;;;;;;;16.67;77.22;99467.25;5065334;28;20202;-64
2021/08/08 06:03:54;;;;;;;1.88;1.17;;;;;;;16.58;77.19;99473.91;5048374;28;21140;-61
2021/08/08 06:06:20;;;;;;;2.92;1.48;;;;;;;16.60;77.66;99479.94;5050904;28;20444;-64
2021/08/08 06:08:46;;;;;;;2.45;1.00;;;;;;;16.87;77.41;99489.03;5060218;28;20052;-62
2021/08/08 06:11:13;;;;;;;2.83;1.00;;;;;;;16.91;76.63;99493.00;5066418;28;20048;-65
2021/08/08 06:13:40;;;;;;;6.07;1.27;;;;;;;17.08;75.74;99505.16;5064264;28;20044;-65
2021/08/08 06:16:06;;;;;;;2.38;1.02;;;;;;;17.23;74.53;99497.69;5066657;28;20080;-63
2021/08/08 06:18:33;;;;;;;2.58;0.90;;;;;;;17.18;74.75;99500.19;5051270;28;20461;-64
2021/08/08 06:20:59;;;;;;;1.63;1.10;;;;;;;17.49;74.73;99504.19;5068148;28;20061;-63
2021/08/08 06:23:25;;;;;;;1.92;1.00;;;;;;;17.57;74.80;99508.59;5050551;28;20045;-63
2021/08/08 06:25:52;;;;;;;1.58;0.88;;;;;;;17.50;72.23;99497.72;5052297;28;20557;-57
2021/08/08 06:28:18;;;;;;;2.60;0.85;;;;;;;17.74;72.27;99501.75;5059549;28;20052;-55
2021/08/08 06:30:46;;;;;;;2.30;1.25;;;;;;;17.70;73.83;99506.75;5071062;28;20048;-58
2021/08/08 06:33:15;;;;;;;2.72;1.13;;;;;;;17.70;72.99;99500.50;5061342;28;20484;-57
2021/08/08 06:35:41;;;;;;;1.90;0.88;;;;;;;17.83;73.64;99519.50;5060167;28;20470;-58
2021/08/08 06:38:07;;;;;;;2.10;1.02;;;;;;;17.82;72.96;99494.25;5055271;28;20147;-57
2021/08/08 06:40:34;;;;;;;2.75;1.20;;;;;;;17.83;70.75;99501.34;5057653;28;20507;-57
2021/08/08 06:43:02;;;;;;;2.45;0.70;;;;;;;18.03;70.15;99511.38;5057797;28;20110;-58
2021/08/08 06:45:28;;;;;;;4.43;1.23;;;;;;;17.85;70.75;99503.00;5067813;28;20441;-56
2021/08/08 06:47:56;;;;;;;1.00;0.63;;;;;;;17.92;71.67;99515.53;5056239;28;20460;-60
2021/08/08 06:50:23;;;;;;;4.97;1.00;;;;;;;18.00;70.28;99519.94;5055067;28;22649;-61
2021/08/08 06:52:49;;;;;;;2.60;1.20;;;;;;;18.01;70.35;99519.72;5037718;28;20052;-57
2021/08/08 06:55:15;;;;;;;4.38;0.98;;;;;;;18.05;69.18;99520.13;5050260;28;20057;-56
2021/08/08 06:57:41;;;;;;;1.88;0.85;;;;;;;18.32;67.99;99518.19;5047755;28;20084;-56
2021/08/08 07:00:08;;;;;;;2.13;0.75;;;;;;;18.24;67.53;99519.28;5057046;28;20451;-54
2021/08/08 07:02:35;;;;;;;2.03;0.82;;;;;;;18.44;68.36;99511.06;5049411;28;20491;-56
2021/08/08 07:05:04;;;;;;;1.98;0.88;;;;;;;18.47;68.50;99509.81;5050363;28;20463;-57
2021/08/08 07:07:30;;;;;;;3.25;0.90;;;;;;;18.95;67.50;99511.16;5049035;28;20056;-56
2021/08/08 07:09:57;;;;;;;3.90;0.90;;;;;;;19.14;65.47;99516.69;5055883;28;20075;-56
2021/08/08 07:12:23;;;;;;;1.88;0.90;;;;;;;19.26;65.10;99526.66;5052402;28;20095;-58
2021/08/08 07:14:50;;;;;;;1.77;0.70;;;;;;;18.95;63.15;99508.44;5058282;28;20556;-57
2021/08/08 07:17:16;;;;;;;0.90;0.50;;;;;;;19.19;63.64;99534.06;5044609;28;20102;-56
2021/08/08 07:19:43;;;;;;;3.47;0.93;;;;;;;19.19;65.17;99528.63;5049360;28;20079;-58
2021/08/08 07:22:11;;;;;;;1.40;0.70;;;;;;;19.22;65.83;99532.78;5061084;28;20048;-56
2021/08/08 07:24:37;;;;;;;2.67;0.70;;;;;;;19.41;63.56;99541.84;5055673;28;20457;-57
2021/08/08 07:27:04;;;;;;;2.45;0.77;;;;;;;19.78;64.48;99537.50;5052879;28;20437;-55
2021/08/08 07:29:30;;;;;;;4.85;1.00;;;;;;;20.07;63.02;99544.97;5052993;28;20085;-56
2021/08/08 07:31:56;;;;;;;3.15;0.77;;;;;;;20.06;61.84;99540.59;5056419;28;20048;-58
2021/08/08 07:34:23;;;;;;;2.15;0.80;;;;;;;20.02;62.90;99549.44;5053609;28;20049;-57
2021/08/08 07:36:50;;;;;;;2.05;0.80;;;;;;;19.86;62.59;99539.91;5050298;28;20072;-63
2021/08/08 07:39:17;;;;;;;2.13;0.63;;;;;;;19.73;63.56;99553.63;5052541;28;20045;-62
2021/08/08 07:41:44;;;;;;;2.03;0.77;;;;;;;20.02;62.87;99547.56;5048297;28;20490;-62
2021/08/08 07:44:10;;;;;;;1.88;0.82;;;;;;;20.31;62.13;99547.91;5051573;28;20088;-62
2021/08/08 07:46:37;;;;;;;1.27;0.73;;;;;;;20.17;61.74;99555.38;5049610;28;20049;-63
2021/08/08 07:49:03;;;;;;;2.25;0.80;;;;;;;19.73;63.90;99551.75;5060648;28;20048;-62
2021/08/08 07:51:29;;;;;;;3.03;0.80;;;;;;;19.51;64.33;99553.94;5064102;28;20482;-64
2021/08/08 07:53:55;;;;;;;3.83;0.90;;;;;;;19.40;66.13;99556.53;5059611;28;20068;-62
2021/08/08 07:56:23;;;;;;;7.43;1.63;;;;;;;19.52;64.95;99552.06;5084459;22;20069;-62
2021/08/08 07:58:49;;;;;;;4.68;0.88;;;;;;;19.87;63.55;99555.19;5030033;28;20511;-62
2021/08/08 08:01:16;;;;;;;2.33;0.90;;;;;;;20.32;62.94;99555.88;5034181;28;20083;-61
2021/08/08 08:03:42;;;;;;;1.83;0.63;;;;;;;20.67;60.48;99548.00;5035031;28;20095;-62
2021/08/08 08:06:08;;;;;;;1.42;0.82;;;;;;;20.78;58.52;99553.75;5044535;28;20080;-60
2021/08/08 08:11:58;;;;;;;1.83;0.73;;;;;;;21.14;55.90;99553.72;5035512;28;20081;-61
2021/08/08 08:14:24;;;;;;;1.75;0.65;;;;;;;20.78;58.08;99553.75;5031683;28;20068;-60
2021/08/08 08:16:50;;;;;;;1.15;0.60;;;;;;;21.08;58.50;99545.66;5028194;28;20541;-62
2021/08/08 08:19:16;;;;;;;2.58;0.73;;;;;;;21.13;59.11;99552.06;5046907;28;20102;-60
2021/08/08 08:21:44;;;;;;;0.85;0.50;;;;;;;21.59;57.49;99550.63;5039036;28;20456;-61
2021/08/08 08:24:10;;;;;;;4.10;0.88;;;;;;;21.57;54.99;99558.22;5028775;28;20053;-61
2021/08/08 08:26:37;;;;;;;1.15;0.55;;;;;;;21.70;54.84;99554.47;5022744;28;20107;-62
2021/08/08 08:29:05;;;;;;;1.00;0.75;;;;;;;21.68;53.76;99565.63;5027543;28;20053;-62
2021/08/08 08:31:32;;;;;;;2.42;0.70;;;;;;;22.25;53.66;99557.78;5033416;28;20132;-66
2021/08/08 08:33:58;;;;;;;2.00;0.60;;;;;;;22.27;52.75;99561.13;5039643;28;20044;-61
2021/08/08 08:36:24;;;;;;;2.03;0.77;;;;;;;22.54;52.04;99569.69;5036317;28;20072;-60
2021/08/08 08:38:51;;;;;;;2.40;0.68;;;;;;;21.97;53.33;99579.47;5033124;28;20084;-64
2021/08/08 08:41:18;;;;;;;0.65;0.50;;;;;;;21.85;53.42;99576.72;5047861;28;20076;-62
2021/08/08 08:43:45;;;;;;;2.05;0.73;;;;;;;21.93;55.71;99573.66;5028067;28;20046;-63
2021/08/08 08:46:15;;;;;;;1.58;0.70;;;;;;;21.70;55.18;99574.41;5036648;28;20115;-63
2021/08/08 08:48:43;;;;;;;1.10;0.63;;;;;;;21.27;51.99;99591.78;5027560;28;20590;-63
2021/08/08 08:51:13;;;;;;;2.28;0.73;;;;;;;20.96;54.91;99578.31;5026391;28;20376;-63
2021/08/08 08:53:43;;;;;;;1.40;0.70;;;;;;;20.95;51.48;99582.06;5035002;28;20052;-62
2021/08/08 08:56:09;;;;;;;1.02;0.60;;;;;;;20.82;54.58;99576.78;5028062;28;20052;-61
2021/08/08 08:58:36;;;;;;;1.80;0.80;;;;;;;20.91;52.16;99586.31;5039213;28;20042;-63
2021/08/08 09:01:02;;;;;;;1.48;0.80;;;;;;;21.09;52.62;99580.06;5029531;28;20049;-64
2021/08/08 09:03:30;;;;;;;3.05;0.60;;;;;;;21.38;52.60;99592.09;5035676;28;20460;-62
2021/08/08 09:05:56;;;;;;;1.75;0.77;;;;;;;21.71;49.31;99587.00;5029203;28;20099;-62
2021/08/08 09:08:22;;;;;;;3.22;1.10;;;;;;;21.82;51.31;99593.56;5033461;28;20049;-63
2021/08/08 09:11:01;;;;;;;1.35;0.70;;;;;;;21.36;51.48;99594.22;5050887;28;20049;-61
2021/08/08 09:13:27;;;;;;;1.77;0.60;;;;;;;21.30;52.87;99615.88;5046966;28;20049;-62
2021/08/08 09:15:54;;;;;;;5.03;0.77;;;;;;;21.13;51.62;99605.81;5040024;28;20081;-63
2021/08/08 09:18:22;;;;;;;2.03;0.70;;;;;;;21.22;51.46;99610.72;5043316;28;20045;-63
2021/08/08 09:20:51;;;;;;;1.30;0.70;;;;;;;21.49;51.42;99610.41;5032108;28;20123;-63
2021/08/08 09:23:18;;;;;;;3.38;0.80;;;;;;;21.51;50.80;99614.56;5040789;28;20045;-63
2021/08/08 09:25:51;;;;;;;2.67;0.63;;;;;;;21.77;51.98;99616.09;5031063;28;20049;-63
2021/08/08 09:28:18;;;;;;;1.48;0.70;;;;;;;21.78;52.91;99628.69;5031631;28;20045;-63
2021/08/08 09:30:44;;;;;;;2.42;0.80;;;;;;;21.68;50.02;99614.78;5042496;28;20102;-62
2021/08/08 09:33:12;;;;;;;0.95;0.50;;;;;;;21.98;49.74;99622.13;5044230;28;20123;-62
2021/08/08 09:35:40;;;;;;;1.50;0.80;;;;;;;22.00;50.77;99639.09;5039229;28;20135;-63
2021/08/08 09:38:10;;;;;;;2.28;1.15;;;;;;;21.99;50.52;99626.50;5030962;28;20060;-61
2021/08/08 09:40:38;;;;;;;1.38;0.75;;;;;;;21.54;50.63;99624.19;5039305;28;20052;-63
2021/08/08 09:43:06;;;;;;;1.27;0.63;;;;;;;21.31;52.32;99630.38;5046201;28;20084;-61
2021/08/08 09:45:37;;;;;;;2.72;0.80;;;;;;;21.89;50.92;99638.81;5023012;28;20046;-62
2021/08/08 09:48:05;;;;;;;2.33;0.80;;;;;;;21.99;52.63;99645.63;5031543;28;20534;-63
2021/08/08 09:50:33;;;;;;;2.65;0.88;;;;;;;22.02;53.34;99626.03;5042683;28;20049;-63
2021/08/08 09:53:01;;;;;;;1.52;0.80;;;;;;;22.22;49.12;99626.59;5039397;28;20053;-62
2021/08/08 09:55:33;;;;;;;2.10;1.02;;;;;;;22.14;49.04;99633.25;5042649;28;20052;-62
2021/08/08 09:58:00;;;;;;;4.28;1.05;;;;;;;22.31;48.29;99635.28;5034334;28;20054;-62
2021/08/08 10:00:29;;;;;;;2.58;0.70;;;;;;;22.03;48.56;99641.38;5031634;28;20130;-63
2021/08/08 10:02:57;;;;;;;2.45;0.80;;;;;;;22.12;51.14;99654.50;5032343;28;20049;-62
2021/08/08 10:05:25;;;;;;;2.17;0.80;;;;;;;22.15;49.20;99648.59;5035315;28;20091;-61
2021/08/08 10:07:53;;;;;;;4.28;0.73;;;;;;;22.34;47.88;99649.31;5038165;28;20164;-62
2021/08/08 10:10:20;;;;;;;3.50;1.13;;;;;;;22.34;47.48;99652.03;5038571;28;20557;-61
2021/08/08 10:13:10;;;;;;;10.48;1.00;;;;;;;22.81;45.16;99656.72;5038054;28;20107;-62
2021/08/08 10:15:42;;;;;;;2.55;0.70;;;;;;;23.54;44.88;99658.91;5027410;28;20228;-62
2021/08/08 10:18:11;;;;;;;2.28;0.60;;;;;;;23.38;43.39;99621.34;5032917;28;20065;-63
2021/08/08 10:20:38;;;;;;;1.58;0.80;;;;;;;22.48;43.84;99671.78;5030338;28;20073;-64
2021/08/08 10:23:05;;;;;;;2.78;0.90;;;;;;;22.68;44.53;99666.00;5031859;28;20046;-61
2021/08/08 10:25:32;;;;;;;2.25;0.70;;;;;;;23.06;44.14;99665.53;5039166;28;20411;-62
2021/08/08 10:28:01;;;;;;;3.80;0.73;;;;;;;23.15;44.60;99668.75;5030366;28;20270;-62
2021/08/08 10:30:28;;;;;;;3.33;1.00;;;;;;;22.96;45.40;99677.09;5035379;28;20044;-62
2021/08/08 10:32:55;;;;;;;2.88;0.90;;;;;;;23.27;45.83;99666.84;5031841;28;20550;-63
2021/08/08 10:35:21;;;;;;;2.85;0.68;;;;;;;23.70;42.50;99668.31;5029434;28;20775;-63
2021/08/08 10:37:59;;;;;;;2.50;0.80;;;;;;;23.61;45.81;99676.91;5027566;28;20081;-62
2021/08/08 10:40:27;;;;;;;1.83;0.73;;;;;;;22.79;43.77;99670.66;5039037;28;20103;-61
2021/08/08 10:42:53;;;;;;;2.45;0.90;;;;;;;22.95;44.35;99680.91;5035827;28;20503;-63
2021/08/08 10:45:26;;;;;;;3.65;0.77;;;;;;;22.79;43.72;99675.28;5030406;28;20326;-61
2021/08/08 10:47:57;;;;;;;3.67;1.02;;;;;;;22.70;45.22;99666.59;5038554;28;20044;-62
2021/08/08 10:50:35;;;;;;;0.82;0.55;;;;;;;23.20;45.58;99661.47;5040933;28;20052;-59
2021/08/08 10:53:02;;;;;;;4.07;0.77;;;;;;;23.64;40.98;99670.09;5031280;28;20107;-63
2021/08/08 10:55:30;;;;;;;2.65;1.10;;;;;;;23.46;41.50;99665.63;5043541;28;20045;-61
2021/08/08 10:57:57;;;;;;;4.03;1.38;;;;;;;22.86;44.01;99673.31;5033906;28;20053;-62
2021/08/08 11:00:31;;;;;;;3.22;0.98;;;;;;;22.38;44.18;99671.56;5027832;28;20058;-60
2021/08/08 11:03:08;;;;;;;2.50;0.70;;;;;;;22.58;45.31;99671.22;5035257;28;20051;-63
2021/08/08 11:05:35;;;;;;;3.67;0.90;;;;;;;22.65;44.21;99674.69;5027961;28;20076;-62
2021/08/08 11:08:02;;;;;;;5.30;1.13;;;;;;;23.27;45.09;99683.25;5031883;28;20044;-62
2021/08/08 11:10:29;;;;;;;2.97;0.73;;;;;;;23.65;43.77;99679.16;5023877;28;20122;-62
2021/08/08 11:12:56;;;;;;;2.55;0.60;;;;;;;24.05;43.12;99679.13;5030782;28;20107;-63
2021/08/08 11:15:34;;;;;;;3.05;0.75;;;;;;;23.67;43.47;99685.22;5033645;28;20099;-63
2021/08/08 11:18:01;;;;;;;3.30;0.80;;;;;;;23.23;43.12;99682.09;5036501;28;20053;-62
2021/08/08 11:20:28;;;;;;;3.05;1.05;;;;;;;23.03;45.23;99688.75;5032033;28;20053;-64
2021/08/08 11:22:56;;;;;;;1.35;0.73;;;;;;;22.80;45.88;99688.72;5035972;28;20041;-62
2021/08/08 11:25:23;;;;;;;3.40;0.80;;;;;;;23.23;44.74;99695.78;5033264;28;20055;-63
2021/08/08 11:27:53;;;;;;;1.92;0.73;;;;;;;23.28;43.99;99691.22;5041028;28;20049;-61
2021/08/08 11:30:20;;;;;;;1.55;0.68;;;;;;;23.67;42.60;99687.94;5034304;28;20138;-60
2021/08/08 11:32:54;;;;;;;2.80;1.10;;;;;;;23.97;43.79;99671.28;5038194;28;20076;-61
2021/08/08 11:35:27;;;;;;;2.85;1.15;;;;;;;23.92;42.64;99674.78;5029358;28;20041;-63
2021/08/08 11:37:53;;;;;;;1.38;0.68;;;;;;;24.17;41.18;99664.28;5029240;28;20041;-61